createdAt,value
2019-03-20T00:00:57.161Z,61.75
2019-03-20T00:03:27.614Z,75.08
2019-03-20T00:05:58.996Z,56.15
2019-03-20T00:08:30.486Z,56.73
2019-03-20T00:11:00.783Z,48.45
2019-03-20T00:13:31.135Z,43.50
2019-03-20T00:16:01.420Z,45.00
2019-03-20T00:18:31.757Z,46.50
2019-03-20T00:21:02.101Z,50.43
2019-03-20T00:23:32.455Z,52.25
2019-03-20T00:26:03.732Z,51.98
2019-03-20T00:28:34.000Z,49.85
2019-03-20T00:31:04.306Z,58.02
2019-03-20T00:33:34.579Z,54.30
2019-03-20T00:36:05.040Z,49.77
2019-03-20T00:38:35.317Z,50.28
2019-03-20T00:41:05.700Z,42.98
2019-03-20T00:43:35.960Z,41.95
2019-03-20T00:46:06.238Z,42.58
2019-03-20T00:48:36.448Z,42.08
2019-03-20T00:51:06.804Z,40.60
2019-03-20T00:53:37.071Z,38.13
2019-03-20T00:56:07.428Z,38.20
2019-03-20T00:58:39.676Z,36.95
2019-03-20T01:01:09.691Z,39.78
2019-03-20T01:03:40.005Z,41.08
2019-03-20T01:06:10.320Z,39.08
2019-03-20T01:08:41.704Z,39.73
2019-03-20T01:11:12.363Z,39.40
2019-03-20T01:13:42.642Z,39.18
2019-03-20T01:16:12.854Z,40.50
2019-03-20T01:18:43.235Z,38.23
2019-03-20T01:21:13.571Z,37.20
2019-03-20T01:23:43.855Z,36.10
2019-03-20T01:26:14.177Z,34.92
2019-03-20T01:28:50.336Z,36.10
2019-03-20T01:31:20.640Z,34.70
2019-03-20T01:33:50.876Z,34.88
2019-03-20T01:36:21.181Z,33.95
2019-03-20T01:38:51.455Z,34.53
2019-03-20T01:41:21.779Z,35.10
2019-03-20T01:43:52.056Z,35.88
2019-03-20T01:46:22.323Z,35.00
2019-03-20T01:48:53.660Z,34.80
2019-03-20T01:51:23.998Z,35.35
2019-03-20T01:53:54.201Z,36.10
2019-03-20T01:56:24.498Z,35.13
2019-03-20T01:58:54.782Z,36.80
2019-03-20T02:01:25.143Z,35.63
2019-03-20T02:03:55.356Z,36.70
2019-03-20T02:06:25.794Z,35.17
2019-03-20T02:08:56.118Z,35.50
2019-03-20T02:11:26.420Z,35.80
2019-03-20T02:13:56.734Z,35.33
2019-03-20T02:16:28.128Z,35.63
2019-03-20T02:18:58.468Z,33.42
2019-03-20T02:21:28.759Z,34.33
2019-03-20T02:24:00.067Z,35.33
2019-03-20T02:26:30.384Z,35.35
2019-03-20T02:29:00.718Z,36.08
2019-03-20T02:31:31.009Z,38.13
2019-03-20T02:34:01.348Z,35.95
2019-03-20T02:36:31.607Z,37.45
2019-03-20T02:39:02.021Z,35.10
2019-03-20T02:41:33.802Z,34.83
2019-03-20T02:44:04.144Z,33.75
2019-03-20T02:46:34.380Z,33.85
2019-03-20T02:49:04.801Z,33.13
2019-03-20T02:51:35.110Z,34.48
2019-03-20T02:54:05.433Z,33.78
2019-03-20T02:56:35.732Z,32.63
2019-03-20T02:59:07.142Z,32.25
2019-03-20T03:01:37.511Z,30.60
2019-03-20T03:04:09.009Z,32.50
2019-03-20T03:06:39.243Z,31.62
2019-03-20T03:09:09.543Z,30.90
2019-03-20T03:11:39.842Z,31.05
2019-03-20T03:14:10.152Z,29.87
2019-03-20T03:16:40.427Z,29.98
2019-03-20T03:19:10.756Z,30.92
2019-03-20T03:21:41.008Z,31.17
2019-03-20T03:24:11.277Z,29.63
2019-03-20T03:26:41.599Z,29.75
2019-03-20T03:29:11.793Z,28.85
2019-03-20T03:31:42.130Z,28.50
2019-03-20T03:34:12.420Z,28.98
2019-03-20T03:36:42.707Z,28.90
2019-03-20T03:39:13.004Z,27.85
2019-03-20T03:41:43.293Z,28.00
2019-03-20T03:44:13.586Z,27.48
2019-03-20T03:46:43.883Z,28.05
2019-03-20T03:49:14.089Z,28.75
2019-03-20T03:51:45.400Z,29.35
2019-03-20T03:54:15.666Z,29.55
2019-03-20T03:56:46.378Z,29.77
2019-03-20T03:59:17.640Z,28.57
2019-03-20T04:01:47.998Z,28.77
2019-03-20T04:04:18.283Z,30.60
2019-03-20T04:06:48.582Z,30.35
2019-03-20T04:09:18.857Z,30.90
2019-03-20T04:11:49.177Z,26.25
2019-03-20T04:14:19.456Z,24.75
2019-03-20T04:16:50.761Z,26.93
2019-03-20T04:19:21.038Z,27.70
2019-03-20T04:21:51.432Z,28.05
2019-03-20T04:24:21.645Z,26.20
2019-03-20T04:26:52.047Z,23.95
2019-03-20T04:29:22.337Z,24.32
2019-03-20T04:31:52.848Z,22.87
2019-03-20T04:34:23.102Z,23.35
2019-03-20T04:36:53.451Z,25.20
2019-03-20T04:39:23.724Z,27.17
2019-03-20T04:41:54.067Z,26.70
2019-03-20T04:44:24.337Z,29.92
2019-03-20T04:46:54.759Z,28.30
2019-03-20T04:49:25.049Z,25.65
2019-03-20T04:51:55.468Z,27.95
2019-03-20T04:54:25.729Z,31.80
2019-03-20T04:56:56.140Z,34.10
2019-03-20T04:59:26.401Z,33.38
2019-03-20T05:01:57.018Z,30.92
2019-03-20T05:04:27.287Z,31.62
2019-03-20T05:06:59.069Z,31.27
2019-03-20T05:09:29.467Z,32.50
2019-03-20T05:11:59.860Z,34.55
2019-03-20T05:14:30.273Z,26.55
2019-03-20T05:17:00.601Z,26.80
2019-03-20T05:19:30.873Z,29.48
2019-03-20T05:22:01.176Z,27.65
2019-03-20T05:24:34.080Z,26.80
2019-03-20T05:27:04.532Z,25.85
2019-03-20T05:29:34.836Z,27.35
2019-03-20T05:32:05.170Z,26.33
2019-03-20T05:34:35.430Z,28.55
2019-03-20T05:37:10.180Z,26.52
2019-03-20T05:39:37.696Z,28.25
2019-03-20T05:42:08.035Z,26.77
2019-03-20T05:44:38.995Z,29.10
2019-03-20T05:47:10.386Z,28.85
2019-03-20T05:49:40.765Z,29.20
2019-03-20T05:52:11.229Z,28.70
2019-03-20T05:54:41.573Z,29.52
2019-03-20T05:57:12.693Z,28.02
2019-03-20T05:59:43.105Z,26.37
2019-03-20T06:02:17.322Z,27.30
2019-03-20T06:04:47.552Z,28.40
2019-03-20T06:07:21.824Z,31.77
2019-03-20T06:09:49.737Z,50.03
2019-03-20T06:12:19.991Z,39.10
2019-03-20T06:14:50.328Z,27.37
2019-03-20T06:17:20.603Z,29.35
2019-03-20T06:19:51.062Z,28.15
2019-03-20T06:22:22.622Z,26.65
2019-03-20T06:24:53.076Z,27.02
2019-03-20T06:27:26.585Z,26.17
2019-03-20T06:32:27.319Z,19.82
2019-03-20T06:34:57.674Z,18.75
2019-03-20T06:37:32.620Z,17.70
2019-03-20T06:39:59.908Z,15.58
2019-03-20T06:42:30.125Z,15.30
2019-03-20T06:45:00.497Z,16.57
2019-03-20T06:47:30.759Z,14.50
2019-03-20T06:50:01.019Z,15.08
2019-03-20T06:52:31.283Z,15.93
2019-03-20T06:55:01.633Z,15.75
2019-03-20T06:57:33.003Z,13.62
2019-03-20T07:00:39.446Z,14.68
2019-03-20T07:03:37.950Z,15.63
2019-03-20T07:06:13.939Z,15.68
2019-03-20T07:08:53.130Z,13.78
2019-03-20T07:11:22.238Z,11.38
2019-03-20T07:13:52.427Z,11.50
2019-03-20T07:16:22.660Z,11.28
2019-03-20T07:18:52.944Z,13.15
2019-03-20T07:21:23.252Z,12.40
2019-03-20T07:23:53.553Z,12.88
2019-03-20T07:26:23.863Z,11.35
2019-03-20T07:28:54.132Z,11.25
2019-03-20T07:31:24.429Z,10.50
2019-03-20T07:33:54.736Z,11.83
2019-03-20T07:36:25.052Z,10.32
2019-03-20T07:38:55.329Z,9.90
2019-03-20T07:41:28.143Z,10.45
2019-03-20T07:43:58.274Z,10.27
2019-03-20T07:46:28.622Z,10.55
2019-03-20T07:48:58.969Z,10.90
2019-03-20T07:51:29.295Z,10.82
2019-03-20T07:54:00.561Z,11.33
2019-03-20T07:56:30.905Z,12.68
2019-03-20T07:59:01.175Z,11.35
2019-03-20T08:01:31.513Z,10.03
2019-03-20T08:04:01.712Z,9.85
2019-03-20T08:06:32.023Z,9.08
2019-03-20T08:09:02.283Z,10.08
2019-03-20T08:11:32.613Z,9.05
2019-03-20T08:14:03.545Z,8.90
2019-03-20T08:16:34.235Z,11.88
2019-03-20T08:19:04.607Z,10.53
2019-03-20T08:21:34.868Z,8.15
2019-03-20T08:24:05.047Z,9.28
2019-03-20T08:26:35.464Z,9.85
2019-03-20T08:29:05.751Z,8.00
2019-03-20T08:31:36.112Z,8.08
2019-03-20T08:34:06.414Z,7.65
2019-03-20T08:36:36.855Z,7.65
2019-03-20T08:39:08.081Z,6.80
2019-03-20T08:41:38.495Z,6.90
2019-03-20T08:44:08.758Z,8.05
2019-03-20T08:46:39.027Z,6.72
2019-03-20T08:49:09.294Z,7.25
2019-03-20T08:51:40.292Z,7.70
2019-03-20T08:54:10.442Z,7.35
2019-03-20T08:56:40.763Z,7.67
2019-03-20T08:59:10.953Z,7.10
2019-03-20T09:01:41.293Z,7.12
2019-03-20T09:04:11.572Z,6.42
2019-03-20T09:06:41.822Z,6.90
2019-03-20T09:09:12.017Z,6.55
2019-03-20T09:11:42.364Z,6.28
2019-03-20T09:14:12.558Z,6.42
2019-03-20T09:16:43.935Z,6.30
2019-03-20T09:19:14.182Z,6.37
2019-03-20T09:21:44.467Z,7.08
2019-03-20T09:24:14.724Z,6.80
2019-03-20T09:26:45.026Z,6.05
2019-03-20T09:29:18.739Z,6.37
2019-03-20T09:31:47.205Z,5.85
2019-03-20T09:34:17.585Z,4.75
2019-03-20T09:36:47.809Z,6.25
2019-03-20T09:39:18.003Z,5.37
2019-03-20T09:41:48.329Z,5.83
2019-03-20T09:44:18.559Z,4.87
2019-03-20T09:46:48.863Z,4.28
2019-03-20T09:49:19.063Z,4.87
2019-03-20T09:51:49.381Z,4.78
2019-03-20T09:54:19.633Z,4.28
2019-03-20T09:56:50.933Z,4.37
2019-03-20T09:59:21.144Z,4.50
2019-03-20T10:01:51.373Z,4.70
2019-03-20T10:04:21.629Z,4.72
2019-03-20T10:06:52.859Z,5.28
2019-03-20T10:09:23.063Z,4.72
2019-03-20T10:11:53.407Z,3.62
2019-03-20T10:14:23.669Z,3.90
2019-03-20T10:16:53.915Z,3.72
2019-03-20T10:19:24.217Z,5.03
2019-03-20T10:21:54.397Z,4.17
2019-03-20T10:24:24.688Z,3.77
2019-03-20T10:26:55.968Z,3.90
2019-03-20T10:29:26.273Z,4.60
2019-03-20T10:31:56.448Z,4.40
2019-03-20T10:34:26.819Z,6.03
2019-03-20T10:36:56.970Z,4.80
2019-03-20T10:39:27.263Z,5.03
2019-03-20T10:41:57.529Z,3.77
2019-03-20T10:44:27.819Z,3.60
2019-03-20T10:46:58.083Z,4.25
2019-03-20T10:49:28.307Z,4.15
2019-03-20T10:51:58.567Z,4.62
2019-03-20T10:54:28.791Z,3.83
2019-03-20T10:56:58.969Z,3.80
2019-03-20T10:59:29.256Z,3.95
2019-03-20T11:02:00.915Z,4.60
2019-03-20T11:04:32.604Z,3.60
2019-03-20T11:07:02.871Z,3.27
2019-03-20T11:09:33.266Z,4.10
2019-03-20T11:12:04.521Z,4.08
2019-03-20T11:14:34.834Z,3.42
2019-03-20T11:17:05.107Z,3.40
2019-03-20T11:19:35.326Z,4.00
2019-03-20T11:22:05.860Z,5.03
2019-03-20T11:24:37.128Z,3.92
2019-03-20T11:27:07.899Z,3.85
2019-03-20T11:29:38.294Z,3.15
2019-03-20T11:32:08.621Z,3.60
2019-03-20T11:34:38.978Z,3.22
2019-03-20T11:37:09.315Z,3.35
2019-03-20T11:39:39.555Z,3.55
2019-03-20T11:42:09.816Z,3.42
2019-03-20T11:44:40.686Z,3.80
2019-03-20T11:47:10.883Z,3.60
2019-03-20T11:49:41.146Z,4.08
2019-03-20T11:52:11.334Z,3.30
2019-03-20T11:54:41.624Z,3.98
2019-03-20T11:57:11.817Z,3.67
2019-03-20T11:59:42.153Z,3.75
2019-03-20T12:02:12.335Z,3.77
2019-03-20T12:04:42.681Z,4.35
2019-03-20T12:07:12.949Z,3.40
2019-03-20T12:09:46.089Z,2.77
2019-03-20T12:12:16.242Z,2.80
2019-03-20T12:14:48.367Z,3.47
2019-03-20T12:17:20.254Z,3.42
2019-03-20T12:19:50.708Z,3.08
2019-03-20T12:22:21.170Z,3.65
2019-03-20T12:24:51.492Z,4.12
2019-03-20T12:27:21.757Z,4.12
2019-03-20T12:29:52.094Z,4.58
2019-03-20T12:32:22.346Z,4.03
2019-03-20T12:34:53.410Z,4.53
2019-03-20T12:37:23.685Z,4.67
2019-03-20T12:39:54.012Z,4.35
2019-03-20T12:42:24.222Z,4.50
2019-03-20T12:44:54.588Z,4.87
2019-03-20T12:47:24.836Z,4.35
2019-03-20T12:49:55.305Z,4.55
2019-03-20T12:52:25.464Z,4.30
2019-03-20T12:54:56.368Z,4.10
2019-03-20T12:57:26.588Z,4.42
2019-03-20T12:59:56.965Z,3.50
2019-03-20T13:02:27.189Z,4.12
2019-03-20T13:04:57.538Z,3.98
2019-03-20T13:07:28.285Z,5.55
2019-03-20T13:10:03.245Z,4.87
2019-03-20T13:12:30.459Z,4.47
2019-03-20T13:15:01.736Z,4.30
2019-03-20T13:17:31.959Z,3.95
2019-03-20T13:20:02.189Z,4.08
2019-03-20T13:22:32.538Z,4.33
2019-03-20T13:25:02.836Z,4.05
2019-03-20T13:27:33.966Z,4.42
2019-03-20T13:30:06.711Z,3.80
2019-03-20T13:32:37.046Z,3.95
2019-03-20T13:35:09.211Z,4.58
2019-03-20T13:37:39.510Z,4.05
2019-03-20T13:40:14.730Z,3.92
2019-03-20T13:42:43.809Z,3.60
2019-03-20T13:45:22.626Z,7.37
2019-03-20T13:47:53.144Z,4.05
2019-03-20T13:50:23.336Z,3.52
2019-03-20T13:52:53.676Z,3.47
2019-03-20T13:55:23.868Z,3.33
2019-03-20T13:57:54.210Z,4.12
2019-03-20T14:00:27.819Z,4.33
2019-03-20T14:02:58.116Z,4.03
2019-03-20T14:05:28.690Z,4.70
2019-03-20T14:07:59.088Z,4.65
2019-03-20T14:10:32.532Z,4.45
2019-03-20T14:13:02.871Z,3.80
2019-03-20T14:15:33.111Z,4.15
2019-03-20T14:18:03.942Z,3.85
2019-03-20T14:20:34.247Z,4.22
2019-03-20T14:23:04.525Z,3.60
2019-03-20T14:25:34.781Z,3.72
2019-03-20T14:28:05.103Z,3.40
2019-03-20T14:30:35.377Z,3.50
2019-03-20T14:33:05.672Z,3.75
2019-03-20T14:35:35.927Z,3.80
2019-03-20T14:38:06.233Z,4.65
2019-03-20T14:40:37.028Z,5.10
2019-03-20T14:43:07.492Z,3.95
2019-03-20T14:45:37.795Z,3.72
2019-03-20T14:48:08.125Z,4.05
2019-03-20T14:50:39.094Z,3.70
2019-03-20T14:53:09.352Z,3.25
2019-03-20T14:55:39.609Z,3.70
2019-03-20T14:58:10.061Z,3.17
2019-03-20T15:00:41.316Z,3.40
2019-03-20T15:03:11.627Z,2.98
2019-03-20T15:05:42.197Z,3.10
2019-03-20T15:08:12.420Z,3.10
2019-03-20T15:10:46.193Z,3.75
2019-03-20T15:13:14.588Z,3.12
2019-03-20T15:15:53.659Z,5.80
2019-03-20T15:18:23.916Z,3.05
2019-03-20T15:20:54.150Z,2.92
2019-03-20T15:23:24.435Z,3.98
2019-03-20T15:25:54.697Z,3.75
2019-03-20T15:28:24.948Z,3.20
2019-03-20T15:30:55.139Z,3.87
2019-03-20T15:33:25.449Z,4.10
2019-03-20T15:35:55.638Z,4.60
2019-03-20T15:38:25.961Z,4.08
2019-03-20T15:40:56.552Z,3.77
2019-03-20T15:43:27.937Z,4.75
2019-03-20T15:45:58.200Z,4.00
2019-03-20T15:48:28.507Z,3.67
2019-03-20T15:50:58.719Z,3.95
2019-03-20T15:53:29.025Z,4.45
2019-03-20T15:55:59.468Z,4.05
2019-03-20T15:58:29.803Z,4.90
2019-03-20T16:01:00.070Z,5.28
2019-03-20T16:03:44.897Z,4.00
2019-03-20T16:06:15.164Z,5.58
2019-03-20T16:08:45.537Z,4.47
2019-03-20T16:11:15.788Z,4.30
2019-03-20T16:13:46.184Z,4.60
2019-03-20T16:16:16.443Z,5.15
2019-03-20T16:18:46.628Z,4.05
2019-03-20T16:21:16.924Z,4.17
2019-03-20T16:24:06.420Z,4.20
2019-03-20T16:26:36.731Z,4.45
2019-03-20T16:29:07.050Z,4.55
2019-03-20T16:31:37.299Z,4.22
2019-03-20T16:34:07.596Z,4.50
2019-03-20T16:36:37.860Z,3.67
2019-03-20T16:39:09.030Z,4.10
2019-03-20T16:41:39.315Z,4.75
2019-03-20T16:44:09.580Z,4.83
2019-03-20T16:46:39.841Z,5.03
2019-03-20T16:49:10.189Z,5.00
2019-03-20T16:51:40.408Z,5.08
2019-03-20T16:54:11.341Z,4.58
2019-03-20T16:56:41.626Z,5.00
2019-03-20T16:59:12.597Z,5.92
2019-03-20T17:01:43.091Z,5.47
2019-03-20T17:04:13.675Z,7.90
2019-03-20T17:06:43.966Z,6.70
2019-03-20T17:09:15.121Z,7.65
2019-03-20T17:11:45.419Z,8.53
2019-03-20T17:14:15.711Z,10.65
2019-03-20T17:16:46.026Z,9.25
2019-03-20T17:19:29.983Z,9.58
2019-03-20T17:24:29.567Z,22.02
2019-03-20T17:26:59.973Z,25.77
2019-03-20T17:29:30.313Z,29.98
2019-03-20T17:32:00.619Z,31.50
2019-03-20T17:34:30.834Z,28.25
2019-03-20T17:37:01.070Z,27.05
2019-03-20T17:39:31.345Z,17.05
2019-03-20T17:42:01.835Z,21.55
2019-03-20T17:44:32.026Z,16.77
2019-03-20T17:47:02.324Z,17.07
2019-03-20T17:49:32.516Z,14.95
2019-03-20T17:52:02.817Z,14.25
2019-03-20T17:54:33.080Z,13.90
2019-03-20T17:57:04.098Z,16.97
2019-03-20T17:59:34.401Z,21.55
2019-03-20T18:02:04.718Z,20.17
2019-03-20T18:04:34.990Z,22.22
2019-03-20T18:07:05.296Z,22.48
2019-03-20T18:09:36.440Z,23.62
2019-03-20T18:12:06.696Z,23.57
2019-03-20T18:14:43.612Z,25.32
2019-03-20T18:17:13.969Z,28.67
2019-03-20T18:19:44.241Z,28.02
2019-03-20T18:22:14.509Z,28.67
2019-03-20T18:24:45.861Z,25.32
2019-03-20T18:27:16.189Z,26.02
2019-03-20T18:29:46.461Z,24.52
2019-03-20T18:32:16.763Z,24.75
2019-03-20T18:34:47.060Z,21.93
2019-03-20T18:37:17.372Z,21.12
2019-03-20T18:39:47.666Z,19.52
2019-03-20T18:42:17.956Z,20.48
2019-03-20T18:44:48.219Z,19.85
2019-03-20T18:47:18.562Z,20.75
2019-03-20T18:49:49.716Z,19.37
2019-03-20T18:52:20.018Z,20.88
2019-03-20T18:54:50.278Z,21.30
2019-03-20T18:57:20.544Z,20.27
2019-03-20T18:59:50.811Z,21.55
2019-03-20T19:02:21.116Z,20.45
2019-03-20T19:04:51.386Z,22.00
2019-03-20T19:07:21.684Z,21.93
2019-03-20T19:09:51.969Z,23.00
2019-03-20T19:12:22.176Z,22.32
2019-03-20T19:14:53.316Z,18.90
2019-03-20T19:17:23.859Z,26.50
2019-03-20T19:19:54.111Z,29.90
2019-03-20T19:22:24.445Z,29.45
2019-03-20T19:24:54.670Z,35.63
2019-03-20T19:27:24.957Z,38.48
2019-03-20T19:29:55.228Z,39.85
2019-03-20T19:32:25.463Z,38.80
2019-03-20T19:34:55.657Z,40.35
2019-03-20T19:37:25.954Z,38.85
2019-03-20T19:39:56.228Z,39.08
2019-03-20T19:42:26.534Z,38.48
2019-03-20T19:44:56.810Z,36.88
2019-03-20T19:47:27.190Z,37.75
2019-03-20T19:49:57.471Z,39.35
2019-03-20T19:52:27.826Z,45.52
2019-03-20T19:54:58.094Z,50.65
2019-03-20T19:57:28.434Z,51.58
2019-03-20T19:59:58.632Z,52.35
2019-03-20T20:02:28.966Z,50.83
2019-03-20T20:04:59.232Z,51.70
2019-03-20T20:07:29.500Z,50.20
2019-03-20T20:09:59.703Z,51.85
2019-03-20T20:12:31.494Z,54.33
2019-03-20T20:15:01.981Z,54.42
2019-03-20T20:17:33.632Z,53.45
2019-03-20T20:20:05.465Z,54.38
2019-03-20T20:22:35.821Z,49.08
2019-03-20T20:25:07.383Z,47.35
2019-03-20T20:27:38.555Z,45.83
2019-03-20T20:30:11.792Z,49.77
2019-03-20T20:32:42.184Z,47.25
2019-03-20T20:35:13.873Z,44.15
2019-03-20T20:37:45.422Z,42.00
2019-03-20T20:40:17.967Z,44.25
2019-03-20T20:42:48.243Z,42.65
2019-03-20T20:45:18.530Z,47.55
2019-03-20T20:47:49.168Z,44.83
2019-03-20T20:50:19.843Z,46.05
2019-03-20T20:52:51.207Z,46.73
2019-03-20T20:55:24.925Z,39.92
2019-03-20T21:00:27.848Z,40.85
2019-03-20T21:05:27.506Z,40.00
2019-03-20T21:07:57.785Z,44.77
2019-03-20T21:10:28.240Z,39.90
2019-03-20T21:13:00.420Z,36.98
2019-03-20T21:15:36.152Z,34.83
2019-03-20T21:18:15.264Z,35.03
2019-03-20T21:20:48.733Z,34.38
2019-03-20T21:23:38.790Z,34.55
2019-03-20T21:26:14.858Z,34.63
2019-03-20T21:29:11.846Z,37.70
2019-03-20T21:31:45.166Z,39.27
2019-03-20T21:34:27.555Z,42.88
2019-03-20T21:37:35.947Z,39.23
2019-03-20T21:40:09.914Z,38.42
2019-03-20T21:43:07.024Z,38.83
2019-03-20T21:45:39.403Z,35.50
2019-03-20T21:48:09.749Z,36.33
2019-03-20T21:51:02.882Z,39.75
2019-03-20T21:54:08.093Z,41.23
2019-03-20T21:57:00.666Z,39.18
2019-03-20T21:59:53.600Z,37.98
2019-03-20T22:02:41.444Z,35.03
2019-03-20T22:05:22.777Z,35.20
2019-03-20T22:07:46.623Z,35.28
2019-03-20T22:10:28.947Z,32.15
2019-03-20T22:13:05.121Z,29.37
2019-03-20T22:15:54.950Z,30.60
2019-03-20T22:18:46.718Z,29.75
2019-03-20T22:21:39.143Z,29.60
2019-03-20T22:24:46.945Z,28.42
2019-03-20T22:27:25.977Z,30.40
2019-03-20T22:29:56.262Z,29.75
2019-03-20T22:32:32.335Z,30.20
2019-03-20T22:35:23.656Z,31.70
2019-03-20T22:37:55.122Z,29.92
2019-03-20T22:40:44.561Z,31.35
2019-03-20T22:43:38.382Z,31.40
2019-03-20T22:46:42.406Z,32.35
2019-03-20T22:49:33.393Z,32.93
2019-03-20T22:52:21.457Z,32.38
2019-03-20T22:55:26.348Z,34.98
2019-03-20T22:58:11.588Z,34.50
2019-03-20T23:00:42.727Z,36.80
2019-03-20T23:03:28.217Z,37.48
2019-03-20T23:05:58.487Z,36.50
2019-03-20T23:08:28.682Z,37.88
2019-03-20T23:10:59.383Z,39.00
2019-03-20T23:13:40.808Z,39.65
2019-03-20T23:16:08.458Z,40.40
2019-03-20T23:18:38.734Z,41.10
2019-03-20T23:21:09.046Z,39.88
2019-03-20T23:23:39.534Z,40.55
2019-03-20T23:26:09.732Z,39.58
2019-03-20T23:28:40.864Z,40.80
2019-03-20T23:31:11.135Z,40.75
2019-03-20T23:33:41.434Z,40.08
2019-03-20T23:36:11.697Z,40.65
2019-03-20T23:38:41.986Z,40.40
2019-03-20T23:41:12.184Z,40.28
2019-03-20T23:43:52.352Z,39.73
2019-03-20T23:46:14.378Z,39.03
2019-03-20T23:48:53.570Z,38.80
2019-03-20T23:51:26.350Z,37.08
2019-03-20T23:53:57.074Z,38.37
2019-03-20T23:56:29.975Z,38.30
2019-03-20T23:59:00.267Z,36.48
